Time;durP1;ratioP1;P1;durP2;ratioP2;P2;SDS_P1;SDS_P2;PMS_P1;PMS_P2;Temp;Humidity;BMP_temperature;BMP_pressure;BME280_temperature;BME280_humidity;BME280_pressure;Samples;Min_cycle;Max_cycle;Signal;HPM_P1;HPM_P2
2021/03/16 00:01:21;;;;;;;11.00;8.33;;;;;;;;;;4906826;29;20851;-74
2021/03/16 00:04:28;;;;;;;15.60;8.60;;;;;;;;;;4900806;29;20550;-74
2021/03/16 00:07:48;;;;;;;11.57;8.13;;;;;;;;;;4913012;29;20601;-74
2021/03/16 00:10:53;;;;;;;14.03;8.57;;;;;;;;;;4909361;29;21251;-74
2021/03/16 00:13:57;;;;;;;10.00;7.53;;;;;;;;;;4900650;29;20554;-74
2021/03/16 00:17:01;;;;;;;11.87;8.47;;;;;;;;;;4900294;29;21184;-74
2021/03/16 00:20:06;;;;;;;12.27;8.63;;;;;;;;;;4900261;29;20628;-74
2021/03/16 00:23:11;;;;;;;14.77;8.73;;;;;;;;;;4912836;29;20597;-74
2021/03/16 00:26:15;;;;;;;12.17;8.63;;;;;;;;;;4918971;29;20600;-73
2021/03/16 00:29:19;;;;;;;11.83;8.23;;;;;;;;;;4919700;29;20644;-74
2021/03/16 00:32:23;;;;;;;11.87;8.23;;;;;;;;;;4899963;29;20633;-74
2021/03/16 00:35:28;;;;;;;12.57;8.60;;;;;;;;;;4913158;29;20604;-74
2021/03/16 00:38:32;;;;;;;10.87;8.00;;;;;;;;;;4918325;29;20549;-75
2021/03/16 00:41:36;;;;;;;14.47;8.43;;;;;;;;;;4918091;29;20659;-74
2021/03/16 00:44:44;;;;;;;13.17;8.13;;;;;;;;;;4918687;29;20561;-75
2021/03/16 00:47:48;;;;;;;13.60;8.77;;;;;;;;;;4899607;29;20586;-74
2021/03/16 00:50:54;;;;;;;14.73;8.20;;;;;;;;;;4908031;29;20649;-74
2021/03/16 00:53:59;;;;;;;13.17;8.63;;;;;;;;;;4918396;29;20605;-74
2021/03/16 00:57:03;;;;;;;17.60;8.50;;;;;;;;;;4917461;29;20597;-74
2021/03/16 01:00:08;;;;;;;12.23;7.67;;;;;;;;;;4902011;29;20582;-73
2021/03/16 01:03:12;;;;;;;12.03;8.23;;;;;;;;;;4918434;29;20557;-74
2021/03/16 01:06:16;;;;;;;13.47;8.00;;;;;;;;;;4918296;29;21159;-74
2021/03/16 01:09:20;;;;;;;10.97;7.70;;;;;;;;;;4900587;29;20670;-74
2021/03/16 01:12:25;;;;;;;13.50;8.13;;;;;;;;;;4917044;29;20641;-75
2021/03/16 01:15:29;;;;;;;15.40;8.47;;;;;;;;;;4917309;29;20616;-74
2021/03/16 01:18:33;;;;;;;14.27;8.67;;;;;;;;;;4907799;29;20594;-74
2021/03/16 01:21:38;;;;;;;10.57;7.60;;;;;;;;;;4915533;29;20664;-74
2021/03/16 01:24:42;;;;;;;12.10;8.07;;;;;;;;;;4918228;29;20546;-74
2021/03/16 01:27:46;;;;;;;13.20;7.53;;;;;;;;;;4913303;29;20622;-74
2021/03/16 01:30:50;;;;;;;18.20;7.90;;;;;;;;;;4908142;29;20640;-74
2021/03/16 01:33:54;;;;;;;12.70;8.03;;;;;;;;;;4898819;29;20621;-74
2021/03/16 01:36:58;;;;;;;10.50;7.80;;;;;;;;;;4899407;29;20554;-74
2021/03/16 01:40:15;;;;;;;10.80;7.20;;;;;;;;;;4901734;29;20589;-74
2021/03/16 01:43:29;;;;;;;13.93;7.47;;;;;;;;;;4916695;29;21152;-74
2021/03/16 01:46:33;;;;;;;12.57;7.03;;;;;;;;;;4917833;29;20545;-75
2021/03/16 01:49:39;;;;;;;11.30;7.20;;;;;;;;;;4899406;29;20630;-74
2021/03/16 01:52:43;;;;;;;14.03;7.23;;;;;;;;;;4917460;29;20554;-74
2021/03/16 01:55:49;;;;;;;14.53;7.53;;;;;;;;;;4917708;29;20554;-75
2021/03/16 01:59:00;;;;;;;12.27;7.40;;;;;;;;;;4917108;29;20608;-74
2021/03/16 02:02:22;;;;;;;8.63;6.40;;;;;;;;;;4898059;29;20629;-75
2021/03/16 02:05:45;;;;;;;10.47;6.10;;;;;;;;;;4898656;29;21070;-74
2021/03/16 02:09:31;;;;;;;9.23;6.70;;;;;;;;;;4898625;29;21137;-74
2021/03/16 02:13:02;;;;;;;11.33;6.43;;;;;;;;;;4911671;29;20593;-74
2021/03/16 02:16:37;;;;;;;10.60;6.87;;;;;;;;;;4898551;29;21073;-74
2021/03/16 02:20:08;;;;;;;15.77;6.87;;;;;;;;;;4898331;29;21156;-75
2021/03/16 02:23:46;;;;;;;9.53;6.60;;;;;;;;;;4914806;29;20929;-74
2021/03/16 02:27:17;;;;;;;14.20;7.00;;;;;;;;;;4904855;29;20939;-74
2021/03/16 02:30:42;;;;;;;13.40;6.97;;;;;;;;;;4897951;29;20657;-74
2021/03/16 02:34:06;;;;;;;14.43;7.37;;;;;;;;;;4899077;29;20599;-74
2021/03/16 02:37:34;;;;;;;12.97;6.07;;;;;;;;;;4898299;29;20546;-74
2021/03/16 02:41:00;;;;;;;13.50;6.40;;;;;;;;;;4903731;29;21214;-74
2021/03/16 02:44:22;;;;;;;9.07;6.10;;;;;;;;;;4903158;29;20594;-74
2021/03/16 02:47:47;;;;;;;12.57;6.50;;;;;;;;;;4916969;29;21100;-74
2021/03/16 02:51:10;;;;;;;11.87;6.80;;;;;;;;;;4897411;29;21177;-74
2021/03/16 02:54:34;;;;;;;11.57;6.53;;;;;;;;;;4910377;29;20601;-74
2021/03/16 02:57:59;;;;;;;14.93;6.73;;;;;;;;;;4889708;29;20597;-74
2021/03/16 03:01:22;;;;;;;9.93;5.73;;;;;;;;;;4898023;29;20963;-74
2021/03/16 03:04:46;;;;;;;12.63;6.33;;;;;;;;;;4907010;29;20593;-74
2021/03/16 03:08:10;;;;;;;10.97;6.50;;;;;;;;;;4897817;29;20602;-74
2021/03/16 03:11:34;;;;;;;11.63;5.80;;;;;;;;;;4897647;29;20614;-75
2021/03/16 03:14:56;;;;;;;9.30;6.00;;;;;;;;;;4900916;29;20605;-75
2021/03/16 03:18:19;;;;;;;13.60;6.73;;;;;;;;;;4916499;29;20553;-74
2021/03/16 03:21:50;;;;;;;13.87;6.60;;;;;;;;;;4903494;29;20653;-75
2021/03/16 03:25:43;;;;;;;8.57;5.20;;;;;;;;;;4902953;29;20593;-75
2021/03/16 03:29:07;;;;;;;11.00;5.80;;;;;;;;;;4897086;29;20535;-74
2021/03/16 03:32:32;;;;;;;10.77;6.07;;;;;;;;;;4897735;29;20622;-74
2021/03/16 03:35:55;;;;;;;9.27;6.07;;;;;;;;;;4911483;29;20601;-74
2021/03/16 03:39:20;;;;;;;13.17;6.13;;;;;;;;;;4901241;29;21069;-74
2021/03/16 03:42:44;;;;;;;9.93;5.93;;;;;;;;;;4901180;29;20559;-74
2021/03/16 03:46:09;;;;;;;9.37;6.00;;;;;;;;;;4900870;29;20602;-74
2021/03/16 03:49:32;;;;;;;11.30;6.83;;;;;;;;;;4908546;29;20645;-74
2021/03/16 03:52:55;;;;;;;14.40;6.80;;;;;;;;;;4919632;29;20549;-74
2021/03/16 03:56:19;;;;;;;12.77;6.53;;;;;;;;;;4918524;29;20605;-74
2021/03/16 03:59:46;;;;;;;12.03;6.90;;;;;;;;;;4920017;29;20546;-74
2021/03/16 04:03:10;;;;;;;10.27;5.83;;;;;;;;;;4901401;29;21124;-74
2021/03/16 04:06:32;;;;;;;10.93;6.40;;;;;;;;;;4919386;29;20549;-74
2021/03/16 04:09:56;;;;;;;12.27;6.73;;;;;;;;;;4918541;29;20601;-74
2021/03/16 04:13:20;;;;;;;12.53;6.80;;;;;;;;;;4900396;29;20566;-74
2021/03/16 04:16:43;;;;;;;10.47;6.73;;;;;;;;;;4900660;29;21085;-74
2021/03/16 04:20:08;;;;;;;14.00;6.70;;;;;;;;;;4900046;29;20590;-74
2021/03/16 04:23:32;;;;;;;11.20;6.47;;;;;;;;;;4909165;29;21156;-74
2021/03/16 04:26:55;;;;;;;10.93;6.50;;;;;;;;;;4918675;29;20592;-74
2021/03/16 04:30:18;;;;;;;10.87;6.33;;;;;;;;;;4920762;29;20934;-74
2021/03/16 04:33:40;;;;;;;11.93;6.03;;;;;;;;;;4901362;29;20942;-74
2021/03/16 04:37:03;;;;;;;12.47;6.37;;;;;;;;;;4916578;29;21128;-74
2021/03/16 04:40:26;;;;;;;12.70;7.27;;;;;;;;;;4901958;29;20657;-74
2021/03/16 04:43:49;;;;;;;10.30;6.00;;;;;;;;;;4916727;29;21160;-74
2021/03/16 04:47:11;;;;;;;16.30;5.53;;;;;;;;;;4910984;29;20601;-74
2021/03/16 04:50:34;;;;;;;9.20;6.03;;;;;;;;;;4918791;29;20664;-74
2021/03/16 04:53:57;;;;;;;14.00;5.93;;;;;;;;;;4918089;29;20553;-74
2021/03/16 04:57:19;;;;;;;10.00;5.50;;;;;;;;;;4913458;29;20679;-74
2021/03/16 05:00:42;;;;;;;12.43;5.60;;;;;;;;;;4891988;29;20626;-74
2021/03/16 05:04:05;;;;;;;14.23;5.83;;;;;;;;;;4918411;29;20867;-74
2021/03/16 05:07:27;;;;;;;10.63;5.37;;;;;;;;;;4918372;29;20561;-75
2021/03/16 05:10:50;;;;;;;15.97;5.73;;;;;;;;;;4899396;29;20658;-74
2021/03/16 05:14:12;;;;;;;11.87;5.30;;;;;;;;;;4899233;29;20555;-74
2021/03/16 05:17:35;;;;;;;13.23;5.03;;;;;;;;;;4899329;29;20558;-74
2021/03/16 05:20:57;;;;;;;11.57;5.20;;;;;;;;;;4894704;23;560169;-72
2021/03/16 05:24:20;;;;;;;13.87;5.07;;;;;;;;;;4898915;29;20633;-72
2021/03/16 05:27:42;;;;;;;9.13;5.10;;;;;;;;;;4917841;29;20561;-72
2021/03/16 05:31:07;;;;;;;10.57;5.80;;;;;;;;;;4909344;29;21013;-72
2021/03/16 05:34:29;;;;;;;8.97;5.73;;;;;;;;;;4911868;29;21156;-69
2021/03/16 05:37:53;;;;;;;14.70;6.60;;;;;;;;;;4915358;29;20605;-69
2021/03/16 05:41:16;;;;;;;12.87;5.93;;;;;;;;;;4917733;29;20624;-69
2021/03/16 05:44:40;;;;;;;11.80;6.23;;;;;;;;;;4899007;29;20562;-69
2021/03/16 05:48:04;;;;;;;12.27;6.50;;;;;;;;;;4913103;29;20593;-69
2021/03/16 05:51:27;;;;;;;14.60;6.70;;;;;;;;;;4907869;29;20665;-69
2021/03/16 05:54:54;;;;;;;9.83;5.73;;;;;;;;;;4904708;29;20597;-69
2021/03/16 05:58:16;;;;;;;10.93;5.53;;;;;;;;;;4917240;29;20557;-69
2021/03/16 06:01:39;;;;;;;12.47;5.63;;;;;;;;;;4898704;29;21192;-69
2021/03/16 06:05:02;;;;;;;11.07;6.53;;;;;;;;;;4899755;29;20605;-69
2021/03/16 06:08:25;;;;;;;16.30;6.70;;;;;;;;;;4899723;29;20606;-69
2021/03/16 06:11:48;;;;;;;10.67;5.97;;;;;;;;;;4907368;29;21262;-69
2021/03/16 06:15:16;;;;;;;13.77;6.77;;;;;;;;;;4908236;29;20606;-69
2021/03/16 06:18:41;;;;;;;14.93;6.83;;;;;;;;;;4898210;29;20562;-69
2021/03/16 06:22:06;;;;;;;9.37;5.37;;;;;;;;;;4905490;29;20661;-70
2021/03/16 06:25:33;;;;;;;8.47;4.50;;;;;;;;;;4898679;29;20538;-71
2021/03/16 06:29:05;;;;;;;6.60;3.53;;;;;;;;;;4914917;29;20582;-71
2021/03/16 06:32:35;;;;;;;5.77;3.20;;;;;;;;;;4914686;29;20617;-71
2021/03/16 06:36:07;;;;;;;19.23;12.70;;;;;;;;;;4902589;29;20601;-72
2021/03/16 06:39:30;;;;;;;13.07;7.50;;;;;;;;;;4907368;29;20606;-72
2021/03/16 06:43:02;;;;;;;9.87;4.33;;;;;;;;;;4916319;29;20593;-72
2021/03/16 06:46:39;;;;;;;8.17;4.47;;;;;;;;;;4915738;29;20925;-72
2021/03/16 06:50:01;;;;;;;10.10;3.83;;;;;;;;;;4916385;29;20593;-72
2021/03/16 06:53:28;;;;;;;8.40;3.37;;;;;;;;;;4897458;29;20543;-72
2021/03/16 06:57:00;;;;;;;7.60;3.23;;;;;;;;;;4897423;29;20601;-73
2021/03/16 07:00:24;;;;;;;6.10;3.47;;;;;;;;;;4898214;29;20538;-72
2021/03/16 07:03:47;;;;;;;10.17;6.33;;;;;;;;;;4907484;29;21159;-72
2021/03/16 07:07:11;;;;;;;13.10;6.20;;;;;;;;;;4900138;29;20598;-72
2021/03/16 07:10:35;;;;;;;11.77;5.50;;;;;;;;;;4902617;29;20665;-73
2021/03/16 07:13:59;;;;;;;14.60;5.87;;;;;;;;;;4901732;29;20550;-73
2021/03/16 07:17:22;;;;;;;8.70;5.00;;;;;;;;;;4901720;29;20554;-74
2021/03/16 07:20:46;;;;;;;11.90;6.23;;;;;;;;;;4911075;29;20649;-73
2021/03/16 07:24:11;;;;;;;7.13;5.27;;;;;;;;;;4906314;29;20586;-75
2021/03/16 07:27:34;;;;;;;17.13;6.73;;;;;;;;;;4920359;29;20894;-75
2021/03/16 07:30:58;;;;;;;12.37;6.37;;;;;;;;;;4920224;29;20664;-74
2021/03/16 07:34:20;;;;;;;9.87;6.10;;;;;;;;;;4914158;29;20602;-72
2021/03/16 07:37:43;;;;;;;13.47;5.83;;;;;;;;;;4901359;29;20554;-72
2021/03/16 07:41:07;;;;;;;12.37;6.47;;;;;;;;;;4901052;29;20629;-72
2021/03/16 07:44:41;;;;;;;10.63;5.40;;;;;;;;;;4904086;29;20597;-72
2021/03/16 07:48:18;;;;;;;7.83;4.97;;;;;;;;;;4901025;29;20566;-71
2021/03/16 07:51:43;;;;;;;12.17;5.50;;;;;;;;;;4900791;29;21227;-71
2021/03/16 07:55:06;;;;;;;12.37;5.73;;;;;;;;;;4901100;29;20580;-71
2021/03/16 07:58:29;;;;;;;10.03;5.20;;;;;;;;;;4908884;29;20547;-71
2021/03/16 08:01:51;;;;;;;8.63;5.20;;;;;;;;;;4909258;29;20989;-71
2021/03/16 08:05:22;;;;;;;11.07;5.97;;;;;;;;;;4919721;29;20870;-70
2021/03/16 08:08:46;;;;;;;9.87;5.47;;;;;;;;;;4919462;29;20549;-70
2021/03/16 08:12:29;;;;;;;8.80;5.47;;;;;;;;;;4919343;29;20652;-70
2021/03/16 08:15:52;;;;;;;10.77;4.93;;;;;;;;;;4919562;29;20549;-69
2021/03/16 08:19:18;;;;;;;8.03;4.57;;;;;;;;;;4918445;29;20549;-69
2021/03/16 08:22:40;;;;;;;9.40;4.77;;;;;;;;;;4919069;29;20620;-69
2021/03/16 08:26:05;;;;;;;9.87;4.27;;;;;;;;;;4919191;29;20562;-69
2021/03/16 08:29:29;;;;;;;10.37;4.87;;;;;;;;;;4918690;29;20550;-69
2021/03/16 08:32:52;;;;;;;7.90;4.27;;;;;;;;;;4919249;29;20546;-69
2021/03/16 08:36:14;;;;;;;6.47;4.00;;;;;;;;;;4919181;29;20554;-69
2021/03/16 08:39:37;;;;;;;7.37;4.23;;;;;;;;;;4900428;29;20582;-69
2021/03/16 08:43:00;;;;;;;6.53;3.10;;;;;;;;;;4900090;29;21189;-69
2021/03/16 08:46:32;;;;;;;5.63;2.37;;;;;;;;;;4899886;29;20546;-69
2021/03/16 08:49:55;;;;;;;8.93;2.33;;;;;;;;;;4900049;29;20551;-69
2021/03/16 08:53:17;;;;;;;5.27;1.87;;;;;;;;;;4900011;29;20535;-69
2021/03/16 08:56:41;;;;;;;7.10;3.40;;;;;;;;;;4899867;29;20562;-69
2021/03/16 09:00:04;;;;;;;5.73;2.20;;;;;;;;;;4899838;29;20551;-69
2021/03/16 09:03:28;;;;;;;10.67;2.83;;;;;;;;;;4899575;29;20212;-69
2021/03/16 09:06:53;;;;;;;11.83;3.40;;;;;;;;;;4899790;29;20182;-69
2021/03/16 09:10:18;;;;;;;8.10;2.90;;;;;;;;;;4899895;29;20186;-69
2021/03/16 09:13:41;;;;;;;8.37;3.37;;;;;;;;;;4899362;29;20189;-69
2021/03/16 09:17:05;;;;;;;7.70;3.50;;;;;;;;;;4898973;29;20190;-69
2021/03/16 09:20:37;;;;;;;9.87;3.10;;;;;;;;;;4898832;29;20626;-69
2021/03/16 09:24:05;;;;;;;7.73;3.10;;;;;;;;;;4899489;29;20189;-69
2021/03/16 09:27:27;;;;;;;7.93;2.87;;;;;;;;;;4899389;29;20189;-69
2021/03/16 09:30:54;;;;;;;7.77;3.97;;;;;;;;;;4907999;29;20229;-69
2021/03/16 09:34:16;;;;;;;14.10;4.03;;;;;;;;;;4918183;29;20210;-69
2021/03/16 09:37:53;;;;;;;6.70;2.93;;;;;;;;;;4915018;29;20197;-69
2021/03/16 09:41:20;;;;;;;8.10;2.97;;;;;;;;;;4903255;29;20252;-69
2021/03/16 09:44:31;;;;;;;11.20;2.57;;;;;;;;;;4900563;29;20193;-69
2021/03/16 09:47:35;;;;;;;7.30;2.10;;;;;;;;;;4908222;29;20193;-69
2021/03/16 09:50:39;;;;;;;4.93;2.40;;;;;;;;;;4917568;29;20561;-69
2021/03/16 09:53:51;;;;;;;7.57;1.87;;;;;;;;;;4917532;29;20188;-69
2021/03/16 09:56:56;;;;;;;6.90;2.60;;;;;;;;;;4917669;29;20201;-69
2021/03/16 10:00:02;;;;;;;7.00;2.67;;;;;;;;;;4905472;29;20190;-69
2021/03/16 10:03:17;;;;;;;9.93;6.80;;;;;;;;;;4900263;29;20634;-69
2021/03/16 10:06:37;;;;;;;11.13;9.30;;;;;;;;;;4917134;29;20193;-69
2021/03/16 10:09:41;;;;;;;8.73;3.73;;;;;;;;;;4917586;29;20629;-69
2021/03/16 10:12:56;;;;;;;6.77;2.77;;;;;;;;;;4908720;29;20221;-69
2021/03/16 10:16:11;;;;;;;8.33;2.20;;;;;;;;;;4916438;29;20891;-69
2021/03/16 10:19:21;;;;;;;5.23;1.90;;;;;;;;;;4898603;29;20594;-69
2021/03/16 10:22:27;;;;;;;8.40;2.53;;;;;;;;;;4898123;29;20641;-69
2021/03/16 10:25:33;;;;;;;4.10;2.00;;;;;;;;;;4897648;29;20554;-69
2021/03/16 10:28:40;;;;;;;5.13;1.87;;;;;;;;;;4901563;29;20626;-69
2021/03/16 10:31:44;;;;;;;5.90;2.10;;;;;;;;;;4907084;29;20228;-69
2021/03/16 10:34:49;;;;;;;8.83;2.00;;;;;;;;;;4915609;29;21153;-69
2021/03/16 10:37:53;;;;;;;4.17;2.20;;;;;;;;;;4898426;29;20598;-69
2021/03/16 10:40:57;;;;;;;5.83;2.37;;;;;;;;;;4901519;29;20229;-69
2021/03/16 10:44:20;;;;;;;8.80;2.30;;;;;;;;;;4897948;29;20194;-69
2021/03/16 10:47:24;;;;;;;10.60;2.77;;;;;;;;;;4908697;29;20648;-70
2021/03/16 10:50:29;;;;;;;7.50;2.27;;;;;;;;;;4901689;29;20229;-69
2021/03/16 10:53:33;;;;;;;5.43;1.97;;;;;;;;;;4898204;29;20515;-70
2021/03/16 10:56:37;;;;;;;4.03;2.20;;;;;;;;;;4897256;29;20182;-70
2021/03/16 10:59:41;;;;;;;5.90;2.30;;;;;;;;;;4907419;29;20545;-70
2021/03/16 11:02:45;;;;;;;7.90;2.10;;;;;;;;;;4906847;29;20656;-69
2021/03/16 11:05:50;;;;;;;9.47;2.27;;;;;;;;;;4916133;29;20184;-70
2021/03/16 11:08:55;;;;;;;3.43;1.63;;;;;;;;;;4916901;29;20205;-69
2021/03/16 11:11:59;;;;;;;4.40;1.93;;;;;;;;;;4916537;29;20707;-69
2021/03/16 11:15:03;;;;;;;2.80;1.77;;;;;;;;;;4917155;29;20185;-69
2021/03/16 11:18:08;;;;;;;7.40;2.23;;;;;;;;;;4911499;29;20194;-69
2021/03/16 11:21:12;;;;;;;6.10;1.83;;;;;;;;;;4897574;29;20229;-70
2021/03/16 11:24:18;;;;;;;5.83;1.93;;;;;;;;;;4942293;23;20232;-74
2021/03/16 11:27:22;;;;;;;9.77;2.03;;;;;;;;;;4924869;29;20502;-74
2021/03/16 11:30:29;;;;;;;7.73;2.33;;;;;;;;;;4912414;29;20671;-73
2021/03/16 11:33:33;;;;;;;4.40;2.10;;;;;;;;;;4896755;29;20218;-74
2021/03/16 11:36:57;;;;;;;7.00;2.20;;;;;;;;;;4897858;29;20182;-74
2021/03/16 11:40:20;;;;;;;3.20;1.77;;;;;;;;;;4896276;29;20190;-73
2021/03/16 11:43:42;;;;;;;5.80;2.70;;;;;;;;;;4888050;29;20191;-73
2021/03/16 11:47:25;;;;;;;6.97;3.87;;;;;;;;;;4877991;29;20194;-74
2021/03/16 11:50:47;;;;;;;9.77;3.20;;;;;;;;;;4879226;29;20570;-73
2021/03/16 11:54:10;;;;;;;4.20;2.17;;;;;;;;;;4879978;29;20175;-73
2021/03/16 11:57:33;;;;;;;6.63;1.70;;;;;;;;;;4882198;29;20186;-73
2021/03/16 12:00:55;;;;;;;4.77;1.70;;;;;;;;;;4882456;29;20226;-74
2021/03/16 12:04:18;;;;;;;5.37;1.83;;;;;;;;;;4893660;29;20649;-73
2021/03/16 12:07:41;;;;;;;7.60;1.70;;;;;;;;;;4888779;29;20190;-73
2021/03/16 12:11:05;;;;;;;4.10;1.70;;;;;;;;;;4881213;29;20712;-73
2021/03/16 12:14:27;;;;;;;4.13;1.60;;;;;;;;;;4893513;29;20190;-74
2021/03/16 12:17:50;;;;;;;4.37;1.50;;;;;;;;;;4881585;29;20666;-73
2021/03/16 12:21:13;;;;;;;3.53;1.23;;;;;;;;;;4882119;29;20226;-73
2021/03/16 12:24:35;;;;;;;5.60;1.60;;;;;;;;;;4900292;29;20206;-73
2021/03/16 12:27:57;;;;;;;4.00;1.37;;;;;;;;;;4896877;29;20190;-73
2021/03/16 12:31:20;;;;;;;3.60;1.40;;;;;;;;;;4886200;29;20225;-73
2021/03/16 12:34:43;;;;;;;6.47;1.50;;;;;;;;;;4881762;29;20203;-73
2021/03/16 12:38:05;;;;;;;7.70;3.40;;;;;;;;;;4881829;29;20203;-73
2021/03/16 12:41:28;;;;;;;7.50;1.80;;;;;;;;;;4881249;29;20222;-73
2021/03/16 12:44:50;;;;;;;5.10;1.23;;;;;;;;;;4886937;29;20642;-73
2021/03/16 12:48:13;;;;;;;4.10;1.27;;;;;;;;;;4887502;29;20210;-75
2021/03/16 12:51:36;;;;;;;6.23;1.40;;;;;;;;;;4899526;29;20230;-74
2021/03/16 12:54:59;;;;;;;5.77;1.37;;;;;;;;;;4885236;29;20210;-72
2021/03/16 12:58:21;;;;;;;19.93;11.70;;;;;;;;;;4898139;29;20202;-72
2021/03/16 13:01:44;;;;;;;5.00;1.90;;;;;;;;;;4891296;29;20232;-72
2021/03/16 13:05:10;;;;;;;6.57;1.80;;;;;;;;;;4885002;29;20209;-72
2021/03/16 13:08:33;;;;;;;20.27;11.37;;;;;;;;;;4886675;29;20194;-72
2021/03/16 13:11:56;;;;;;;14.43;7.37;;;;;;;;;;4883184;29;20233;-72
2021/03/16 13:15:19;;;;;;;8.40;4.60;;;;;;;;;;4880582;29;20190;-72
2021/03/16 13:18:41;;;;;;;10.07;5.40;;;;;;;;;;4888990;29;20193;-72
2021/03/16 13:22:04;;;;;;;9.70;4.13;;;;;;;;;;4897650;29;20225;-72
2021/03/16 13:25:27;;;;;;;3.67;2.37;;;;;;;;;;4898894;29;20185;-72
2021/03/16 13:28:51;;;;;;;10.17;5.20;;;;;;;;;;4889807;29;20193;-72
2021/03/16 13:32:14;;;;;;;7.57;2.30;;;;;;;;;;4890203;29;20225;-72
2021/03/16 13:35:37;;;;;;;6.47;1.90;;;;;;;;;;4883535;29;20202;-72
2021/03/16 13:38:59;;;;;;;6.03;1.70;;;;;;;;;;4885668;29;20194;-72
2021/03/16 13:42:23;;;;;;;6.17;1.70;;;;;;;;;;4880117;29;20226;-72
2021/03/16 13:45:45;;;;;;;2.83;1.30;;;;;;;;;;4880412;29;20195;-72
2021/03/16 13:49:08;;;;;;;5.70;1.80;;;;;;;;;;4886406;29;20201;-72
2021/03/16 13:52:31;;;;;;;3.73;1.60;;;;;;;;;;4898138;29;20226;-72
2021/03/16 13:55:53;;;;;;;6.93;1.30;;;;;;;;;;4898635;29;20185;-72
2021/03/16 13:59:16;;;;;;;5.13;1.60;;;;;;;;;;4897475;29;20550;-72
2021/03/16 14:02:39;;;;;;;13.63;8.40;;;;;;;;;;4897994;29;20186;-72
2021/03/16 14:06:02;;;;;;;6.23;2.87;;;;;;;;;;4884315;29;20563;-73
2021/03/16 14:09:25;;;;;;;36.50;15.27;;;;;;;;;;4885821;29;20198;-73
2021/03/16 14:12:47;;;;;;;103.83;44.40;;;;;;;;;;4891819;29;20225;-72
2021/03/16 14:16:11;;;;;;;40.97;23.90;;;;;;;;;;4886638;29;20189;-72
2021/03/16 14:19:34;;;;;;;7.60;2.67;;;;;;;;;;4884992;29;20205;-72
2021/03/16 14:22:58;;;;;;;8.17;3.37;;;;;;;;;;4896848;29;20205;-72
2021/03/16 14:26:20;;;;;;;3.53;2.33;;;;;;;;;;4886173;29;20194;-72
2021/03/16 14:29:43;;;;;;;7.00;1.83;;;;;;;;;;4885421;29;20194;-72
2021/03/16 14:33:06;;;;;;;15.97;8.07;;;;;;;;;;4888106;29;20217;-72
2021/03/16 14:36:29;;;;;;;40.60;22.17;;;;;;;;;;4896617;29;20202;-72
2021/03/16 14:39:51;;;;;;;14.20;6.20;;;;;;;;;;4897917;29;20259;-73
2021/03/16 14:43:15;;;;;;;20.30;12.23;;;;;;;;;;4898262;29;20194;-73
2021/03/16 14:46:37;;;;;;;12.07;7.40;;;;;;;;;;4885732;29;20213;-71
2021/03/16 14:50:00;;;;;;;7.20;5.63;;;;;;;;;;4887283;29;20190;-71
2021/03/16 14:53:23;;;;;;;6.57;3.37;;;;;;;;;;4896518;29;20213;-71
2021/03/16 14:56:46;;;;;;;7.23;3.70;;;;;;;;;;4897908;29;20182;-71
2021/03/16 15:00:09;;;;;;;7.43;2.30;;;;;;;;;;4898051;29;20190;-71
2021/03/16 15:03:32;;;;;;;4.90;2.23;;;;;;;;;;4897763;29;20182;-71
2021/03/16 15:06:56;;;;;;;10.73;5.90;;;;;;;;;;4897946;29;20640;-71
2021/03/16 15:10:18;;;;;;;8.57;2.90;;;;;;;;;;4897281;29;20182;-71
2021/03/16 15:13:41;;;;;;;5.93;2.20;;;;;;;;;;4898085;29;20541;-71
2021/03/16 15:17:04;;;;;;;8.97;4.20;;;;;;;;;;4898022;29;20186;-71
2021/03/16 15:20:27;;;;;;;8.00;3.27;;;;;;;;;;4897327;29;20193;-71
2021/03/16 15:23:50;;;;;;;13.20;6.73;;;;;;;;;;4897608;29;20206;-71
2021/03/16 15:27:12;;;;;;;10.53;6.03;;;;;;;;;;4897891;29;20522;-71
2021/03/16 15:30:35;;;;;;;15.90;9.07;;;;;;;;;;4901301;29;20692;-71
2021/03/16 15:33:57;;;;;;;15.17;7.00;;;;;;;;;;4901202;29;20221;-71
2021/03/16 15:37:20;;;;;;;20.07;9.33;;;;;;;;;;4900659;29;20182;-71
2021/03/16 15:40:43;;;;;;;15.13;6.37;;;;;;;;;;4901261;29;20229;-71
2021/03/16 15:44:05;;;;;;;25.17;13.87;;;;;;;;;;4893213;29;20198;-71
2021/03/16 15:47:27;;;;;;;7.87;5.10;;;;;;;;;;4882859;29;20189;-71
2021/03/16 15:50:50;;;;;;;8.33;3.27;;;;;;;;;;4898123;29;20234;-71
2021/03/16 15:54:12;;;;;;;6.10;2.80;;;;;;;;;;4895362;29;20222;-71
2021/03/16 15:57:35;;;;;;;6.23;2.30;;;;;;;;;;4887922;29;20190;-72
2021/03/16 16:00:58;;;;;;;12.47;4.03;;;;;;;;;;4885669;29;20247;-71
2021/03/16 16:04:21;;;;;;;8.13;3.27;;;;;;;;;;4883172;29;20191;-70
2021/03/16 16:07:43;;;;;;;13.87;5.37;;;;;;;;;;4893431;29;20193;-71
2021/03/16 16:11:06;;;;;;;12.50;4.53;;;;;;;;;;4887272;29;20701;-71
2021/03/16 16:14:29;;;;;;;10.53;3.93;;;;;;;;;;4881732;29;20219;-71
2021/03/16 16:17:52;;;;;;;8.80;2.93;;;;;;;;;;4881839;29;20198;-71
2021/03/16 16:21:15;;;;;;;8.40;4.20;;;;;;;;;;4893291;29;20217;-71
2021/03/16 16:24:37;;;;;;;8.90;3.17;;;;;;;;;;4884428;29;20630;-71
2021/03/16 16:28:00;;;;;;;11.90;4.23;;;;;;;;;;4881656;29;20186;-71
2021/03/16 16:31:23;;;;;;;6.10;3.43;;;;;;;;;;4886220;29;20221;-71
2021/03/16 16:34:46;;;;;;;11.27;4.93;;;;;;;;;;4896493;29;20215;-71
2021/03/16 16:38:09;;;;;;;12.43;5.67;;;;;;;;;;4882286;29;20194;-71
2021/03/16 16:41:32;;;;;;;17.83;7.17;;;;;;;;;;4880623;29;20222;-71
2021/03/16 16:44:55;;;;;;;12.87;5.73;;;;;;;;;;4881175;29;20551;-71
2021/03/16 16:48:17;;;;;;;46.77;21.73;;;;;;;;;;4881231;29;20567;-71
2021/03/16 16:51:40;;;;;;;64.40;33.90;;;;;;;;;;4881472;29;21026;-72
2021/03/16 16:55:04;;;;;;;40.37;26.70;;;;;;;;;;4881372;29;20963;-72
2021/03/16 16:58:27;;;;;;;17.83;9.40;;;;;;;;;;4892771;29;20620;-72
2021/03/16 17:01:49;;;;;;;14.97;8.73;;;;;;;;;;4899487;29;20646;-71
2021/03/16 17:05:13;;;;;;;28.40;17.10;;;;;;;;;;4923600;28;21248;-72
2021/03/16 17:08:36;;;;;;;19.80;10.73;;;;;;;;;;4918948;29;20557;-71
2021/03/16 17:11:59;;;;;;;15.87;8.83;;;;;;;;;;4918335;29;20652;-71
2021/03/16 17:15:22;;;;;;;11.97;7.63;;;;;;;;;;4918630;29;21218;-71
2021/03/16 17:18:44;;;;;;;5.27;3.70;;;;;;;;;;4918197;29;20566;-71
2021/03/16 17:22:07;;;;;;;6.43;3.47;;;;;;;;;;4918607;29;20629;-71
2021/03/16 17:25:30;;;;;;;6.13;3.40;;;;;;;;;;4927151;29;20625;-72
2021/03/16 17:28:52;;;;;;;5.07;3.13;;;;;;;;;;4936257;29;20600;-71
2021/03/16 17:32:15;;;;;;;10.40;3.67;;;;;;;;;;4936723;29;20643;-71
2021/03/16 17:35:38;;;;;;;7.70;3.83;;;;;;;;;;4926532;29;20582;-72
2021/03/16 17:39:03;;;;;;;11.83;8.10;;;;;;;;;;4917106;29;20589;-72
2021/03/16 17:42:26;;;;;;;31.80;16.87;;;;;;;;;;4921363;29;20641;-73
2021/03/16 17:45:48;;;;;;;24.40;12.07;;;;;;;;;;4921635;29;20603;-72
2021/03/16 17:49:11;;;;;;;11.60;5.77;;;;;;;;;;4935944;29;20551;-72
2021/03/16 17:52:34;;;;;;;30.37;15.03;;;;;;;;;;4934149;29;20648;-72
2021/03/16 17:55:56;;;;;;;17.73;9.50;;;;;;;;;;4917637;29;21206;-71
2021/03/16 17:59:19;;;;;;;11.63;4.07;;;;;;;;;;4917808;29;20549;-72
2021/03/16 18:02:42;;;;;;;7.63;4.27;;;;;;;;;;4918514;29;20589;-72
2021/03/16 18:06:05;;;;;;;9.03;4.90;;;;;;;;;;4935729;29;20589;-73
2021/03/16 18:09:28;;;;;;;6.83;3.70;;;;;;;;;;4924081;29;20597;-72
2021/03/16 18:12:50;;;;;;;13.90;10.10;;;;;;;;;;4926761;29;20593;-73
2021/03/16 18:16:13;;;;;;;10.63;4.90;;;;;;;;;;4936455;29;20536;-71
2021/03/16 18:19:36;;;;;;;10.50;4.87;;;;;;;;;;4918243;29;20590;-76
2021/03/16 18:22:58;;;;;;;12.70;5.87;;;;;;;;;;4926848;29;20608;-76
2021/03/16 18:26:20;;;;;;;14.87;10.63;;;;;;;;;;4935615;29;20561;-76
2021/03/16 18:29:43;;;;;;;8.57;7.13;;;;;;;;;;4934024;29;20556;-76
2021/03/16 18:33:06;;;;;;;9.00;4.77;;;;;;;;;;4931521;29;20596;-75
2021/03/16 18:36:29;;;;;;;7.27;4.80;;;;;;;;;;4935516;29;20549;-76
2021/03/16 18:39:51;;;;;;;9.07;5.50;;;;;;;;;;4933225;29;20608;-76
2021/03/16 18:43:14;;;;;;;8.97;5.50;;;;;;;;;;4917081;29;20930;-76
2021/03/16 18:46:37;;;;;;;7.87;5.03;;;;;;;;;;4929690;29;20600;-75
2021/03/16 18:50:00;;;;;;;10.63;5.70;;;;;;;;;;4931195;29;21175;-76
2021/03/16 18:53:22;;;;;;;9.60;5.47;;;;;;;;;;4917363;29;20606;-76
2021/03/16 18:56:45;;;;;;;12.43;5.40;;;;;;;;;;4932164;29;20593;-76
2021/03/16 19:00:09;;;;;;;13.63;6.37;;;;;;;;;;4934903;29;21119;-75
2021/03/16 19:03:32;;;;;;;9.70;5.47;;;;;;;;;;4936122;29;20561;-75
2021/03/16 19:06:55;;;;;;;16.80;9.40;;;;;;;;;;4923166;29;21163;-76
2021/03/16 19:10:18;;;;;;;33.20;17.07;;;;;;;;;;4921133;29;20886;-77
2021/03/16 19:13:41;;;;;;;31.63;17.33;;;;;;;;;;4920206;29;20570;-76
2021/03/16 19:17:04;;;;;;;17.40;10.53;;;;;;;;;;4920302;29;20918;-76
2021/03/16 19:20:26;;;;;;;19.10;10.87;;;;;;;;;;4920252;29;21138;-76
2021/03/16 19:23:49;;;;;;;16.93;9.80;;;;;;;;;;4920135;29;20624;-76
2021/03/16 19:27:12;;;;;;;27.53;15.50;;;;;;;;;;4920189;29;20562;-76
2021/03/16 19:30:35;;;;;;;12.77;6.90;;;;;;;;;;4919493;29;20632;-76
2021/03/16 19:33:58;;;;;;;19.60;10.03;;;;;;;;;;4920036;29;20570;-76
2021/03/16 19:37:20;;;;;;;23.00;12.87;;;;;;;;;;4920444;29;21081;-77
2021/03/16 19:40:43;;;;;;;13.57;7.10;;;;;;;;;;4920081;29;20635;-76
2021/03/16 19:44:06;;;;;;;11.67;5.67;;;;;;;;;;4920261;29;20554;-76
2021/03/16 19:47:29;;;;;;;11.57;6.23;;;;;;;;;;4919959;29;20553;-75
2021/03/16 19:50:51;;;;;;;10.03;5.23;;;;;;;;;;4919901;29;20632;-75